sensor_id;sensor_type;location;lat;lon;timestamp;pressure;altitude;pressure_sealevel;temperature;humidity
58018;BME280;43810;50.860;19.226;2023-01-10T00:00:53;97750.66;;;5.76;84.87
58018;BME280;43810;50.860;19.226;2023-01-10T00:03:25;97747.25;;;5.76;84.71
58018;BME280;43810;50.860;19.226;2023-01-10T00:05:51;97739.84;;;5.69;85.08
58018;BME280;43810;50.860;19.226;2023-01-10T00:08:17;97744.97;;;5.65;85.32
58018;BME280;43810;50.860;19.226;2023-01-10T00:10:43;97739.88;;;5.60;85.24
58018;BME280;43810;50.860;19.226;2023-01-10T00:13:16;97745.78;;;5.57;85.26
58018;BME280;43810;50.860;19.226;2023-01-10T00:15:53;97735.69;;;5.59;85.59
58018;BME280;43810;50.860;19.226;2023-01-10T00:18:20;97741.28;;;5.58;85.54
58018;BME280;43810;50.860;19.226;2023-01-10T00:20:47;97744.69;;;5.58;85.66
58018;BME280;43810;50.860;19.226;2023-01-10T00:23:14;97738.50;;;5.54;85.32
58018;BME280;43810;50.860;19.226;2023-01-10T00:25:40;97752.28;;;5.51;85.51
58018;BME280;43810;50.860;19.226;2023-01-10T00:28:07;97758.31;;;5.52;85.79
58018;BME280;43810;50.860;19.226;2023-01-10T00:30:52;97766.53;;;5.50;85.67
58018;BME280;43810;50.860;19.226;2023-01-10T00:33:32;97762.81;;;5.51;85.61
58018;BME280;43810;50.860;19.226;2023-01-10T00:35:59;97767.97;;;5.48;85.80
58018;BME280;43810;50.860;19.226;2023-01-10T00:38:25;97760.69;;;5.45;85.69
58018;BME280;43810;50.860;19.226;2023-01-10T00:40:51;97762.84;;;5.43;85.75
58018;BME280;43810;50.860;19.226;2023-01-10T00:43:17;97764.13;;;5.36;85.65
58018;BME280;43810;50.860;19.226;2023-01-10T00:46:01;97760.72;;;5.36;85.86
58018;BME280;43810;50.860;19.226;2023-01-10T00:48:27;97767.53;;;5.37;86.09
58018;BME280;43810;50.860;19.226;2023-01-10T00:50:53;97770.16;;;5.37;85.93
58018;BME280;43810;50.860;19.226;2023-01-10T00:53:20;97775.25;;;5.42;85.33
58018;BME280;43810;50.860;19.226;2023-01-10T00:55:46;97781.13;;;5.39;85.68
58018;BME280;43810;50.860;19.226;2023-01-10T00:58:13;97790.75;;;5.35;86.13
58018;BME280;43810;50.860;19.226;2023-01-10T01:00:40;97769.06;;;5.38;85.48
58018;BME280;43810;50.860;19.226;2023-01-10T01:03:06;97772.91;;;5.41;85.67
58018;BME280;43810;50.860;19.226;2023-01-10T01:05:33;97772.91;;;5.41;85.17
58018;BME280;43810;50.860;19.226;2023-01-10T01:08:04;97773.84;;;5.45;85.25
58018;BME280;43810;50.860;19.226;2023-01-10T01:10:30;97781.47;;;5.38;85.67
58018;BME280;43810;50.860;19.226;2023-01-10T01:13:04;97780.50;;;5.42;85.26
58018;BME280;43810;50.860;19.226;2023-01-10T01:15:30;97781.59;;;5.41;85.30
58018;BME280;43810;50.860;19.226;2023-01-10T01:17:57;97791.22;;;5.37;85.27
58018;BME280;43810;50.860;19.226;2023-01-10T01:20:23;97788.59;;;5.37;85.55
58018;BME280;43810;50.860;19.226;2023-01-10T01:22:49;97786.41;;;5.39;85.60
58018;BME280;43810;50.860;19.226;2023-01-10T01:25:15;97788.09;;;5.44;84.83
58018;BME280;43810;50.860;19.226;2023-01-10T01:27:41;97798.34;;;5.36;85.38
58018;BME280;43810;50.860;19.226;2023-01-10T01:30:08;97796.63;;;5.41;85.29
58018;BME280;43810;50.860;19.226;2023-01-10T01:32:35;97803.75;;;5.40;85.00
58018;BME280;43810;50.860;19.226;2023-01-10T01:35:00;97799.25;;;5.41;84.87
58018;BME280;43810;50.860;19.226;2023-01-10T01:37:27;97799.09;;;5.46;84.73
58018;BME280;43810;50.860;19.226;2023-01-10T01:39:53;97797.59;;;5.36;85.32
58018;BME280;43810;50.860;19.226;2023-01-10T01:42:31;97819.56;;;5.40;85.07
58018;BME280;43810;50.860;19.226;2023-01-10T01:47:48;97820.50;;;5.44;84.86
58018;BME280;43810;50.860;19.226;2023-01-10T01:52:55;97825.75;;;5.44;84.32
58018;BME280;43810;50.860;19.226;2023-01-10T01:55:24;97820.50;;;5.44;84.89
58018;BME280;43810;50.860;19.226;2023-01-10T01:57:53;97817.56;;;5.46;84.51
58018;BME280;43810;50.860;19.226;2023-01-10T02:00:21;97823.13;;;5.44;84.58
58018;BME280;43810;50.860;19.226;2023-01-10T02:02:50;97818.31;;;5.46;84.46
58018;BME280;43810;50.860;19.226;2023-01-10T02:05:18;97822.03;;;5.45;84.57
58018;BME280;43810;50.860;19.226;2023-01-10T02:07:50;97827.16;;;5.42;84.66
58018;BME280;43810;50.860;19.226;2023-01-10T02:11:09;97829.19;;;5.36;84.43
58018;BME280;43810;50.860;19.226;2023-01-10T02:13:29;97837.84;;;5.45;84.43
58018;BME280;43810;50.860;19.226;2023-01-10T02:15:55;97838.31;;;5.47;84.23
58018;BME280;43810;50.860;19.226;2023-01-10T02:18:22;97841.25;;;5.46;84.55
58018;BME280;43810;50.860;19.226;2023-01-10T02:21:26;97834.16;;;5.38;84.56
58018;BME280;43810;50.860;19.226;2023-01-10T02:27:09;97842.94;;;5.50;83.85
58018;BME280;43810;50.860;19.226;2023-01-10T02:29:54;97843.72;;;5.51;84.29
58018;BME280;43810;50.860;19.226;2023-01-10T02:38:02;97853.34;;;5.47;84.39
58018;BME280;43810;50.860;19.226;2023-01-10T02:40:45;97857.22;;;5.49;84.19
58018;BME280;43810;50.860;19.226;2023-01-10T02:43:19;97856.59;;;5.44;84.37
58018;BME280;43810;50.860;19.226;2023-01-10T02:45:55;97852.25;;;5.30;84.05
58018;BME280;43810;50.860;19.226;2023-01-10T02:48:22;97853.53;;;5.24;84.82
58018;BME280;43810;50.860;19.226;2023-01-10T02:50:53;97858.31;;;5.22;84.65
58018;BME280;43810;50.860;19.226;2023-01-10T02:53:28;97855.38;;;5.15;84.62
58018;BME280;43810;50.860;19.226;2023-01-10T02:56:15;97862.19;;;5.08;84.72
58018;BME280;43810;50.860;19.226;2023-01-10T03:07:45;97870.84;;;4.99;85.29
58018;BME280;43810;50.860;19.226;2023-01-10T03:10:19;97874.41;;;5.21;85.04
58018;BME280;43810;50.860;19.226;2023-01-10T03:12:54;97876.59;;;5.36;84.03
58018;BME280;43810;50.860;19.226;2023-01-10T03:15:24;97880.00;;;5.45;83.71
58018;BME280;43810;50.860;19.226;2023-01-10T03:17:54;97884.34;;;5.50;82.97
58018;BME280;43810;50.860;19.226;2023-01-10T03:20:22;97894.53;;;5.51;83.02
58018;BME280;43810;50.860;19.226;2023-01-10T03:22:50;97905.72;;;5.48;83.56
58018;BME280;43810;50.860;19.226;2023-01-10T03:25:22;97905.25;;;5.46;83.55
58018;BME280;43810;50.860;19.226;2023-01-10T03:27:59;97909.44;;;5.47;83.14
58018;BME280;43810;50.860;19.226;2023-01-10T03:30:40;97920.28;;;5.46;83.26
58018;BME280;43810;50.860;19.226;2023-01-10T03:33:10;97918.56;;;5.41;83.82
58018;BME280;43810;50.860;19.226;2023-01-10T03:43:55;97923.06;;;5.32;84.06
58018;BME280;43810;50.860;19.226;2023-01-10T03:46:52;97930.97;;;5.32;84.30
58018;BME280;43810;50.860;19.226;2023-01-10T03:49:21;97946.00;;;5.31;84.10
58018;BME280;43810;50.860;19.226;2023-01-10T03:51:48;97947.38;;;5.29;84.14
58018;BME280;43810;50.860;19.226;2023-01-10T03:54:16;97949.41;;;5.32;83.78
58018;BME280;43810;50.860;19.226;2023-01-10T03:56:49;97957.78;;;5.34;84.29
58018;BME280;43810;50.860;19.226;2023-01-10T03:59:18;97969.69;;;5.31;83.89
58018;BME280;43810;50.860;19.226;2023-01-10T04:01:45;97969.41;;;5.33;84.16
58018;BME280;43810;50.860;19.226;2023-01-10T04:04:11;97976.81;;;5.31;84.30
58018;BME280;43810;50.860;19.226;2023-01-10T04:06:37;97984.44;;;5.32;84.24
58018;BME280;43810;50.860;19.226;2023-01-10T04:09:03;97981.47;;;5.34;83.94
58018;BME280;43810;50.860;19.226;2023-01-10T04:11:29;97982.09;;;5.31;84.23
58018;BME280;43810;50.860;19.226;2023-01-10T04:13:55;97990.00;;;5.31;84.22
58018;BME280;43810;50.860;19.226;2023-01-10T04:16:20;97990.47;;;5.33;84.22
58018;BME280;43810;50.860;19.226;2023-01-10T04:18:46;98001.16;;;5.36;84.22
58018;BME280;43810;50.860;19.226;2023-01-10T04:21:12;97999.31;;;5.37;83.93
58018;BME280;43810;50.860;19.226;2023-01-10T04:23:38;98005.97;;;5.34;84.50
58018;BME280;43810;50.860;19.226;2023-01-10T04:26:04;98003.16;;;5.40;84.08
58018;BME280;43810;50.860;19.226;2023-01-10T04:28:30;98011.66;;;5.28;84.33
58018;BME280;43810;50.860;19.226;2023-01-10T04:30:56;98016.34;;;5.40;84.34
58018;BME280;43810;50.860;19.226;2023-01-10T04:33:22;98015.13;;;5.46;83.83
58018;BME280;43810;50.860;19.226;2023-01-10T04:35:48;98025.50;;;5.42;83.57
58018;BME280;43810;50.860;19.226;2023-01-10T04:38:15;98018.19;;;5.39;84.09
58018;BME280;43810;50.860;19.226;2023-01-10T04:40:41;98026.44;;;5.38;83.88
58018;BME280;43810;50.860;19.226;2023-01-10T04:43:08;98021.78;;;5.34;84.04
58018;BME280;43810;50.860;19.226;2023-01-10T04:45:33;98033.22;;;5.38;83.92
58018;BME280;43810;50.860;19.226;2023-01-10T04:47:59;98032.31;;;5.34;84.08
58018;BME280;43810;50.860;19.226;2023-01-10T04:50:26;98040.63;;;5.28;84.44
58018;BME280;43810;50.860;19.226;2023-01-10T04:52:52;98039.88;;;5.27;84.36
58018;BME280;43810;50.860;19.226;2023-01-10T04:55:18;98052.72;;;5.29;84.13
58018;BME280;43810;50.860;19.226;2023-01-10T04:57:44;98061.25;;;5.26;84.29
58018;BME280;43810;50.860;19.226;2023-01-10T05:00:11;98060.44;;;5.17;84.86
58018;BME280;43810;50.860;19.226;2023-01-10T05:02:37;98066.34;;;5.14;85.05
58018;BME280;43810;50.860;19.226;2023-01-10T05:05:10;98061.50;;;5.16;85.25
58018;BME280;43810;50.860;19.226;2023-01-10T05:07:37;98073.16;;;5.15;85.60
58018;BME280;43810;50.860;19.226;2023-01-10T05:10:04;98069.28;;;5.12;85.37
58018;BME280;43810;50.860;19.226;2023-01-10T05:12:30;98073.31;;;5.18;85.26
58018;BME280;43810;50.860;19.226;2023-01-10T05:14:56;98079.66;;;5.17;85.35
58018;BME280;43810;50.860;19.226;2023-01-10T05:17:22;98078.88;;;5.17;85.47
58018;BME280;43810;50.860;19.226;2023-01-10T05:19:48;98076.25;;;5.17;85.49
58018;BME280;43810;50.860;19.226;2023-01-10T05:22:14;98081.97;;;5.19;85.29
58018;BME280;43810;50.860;19.226;2023-01-10T05:24:40;98085.66;;;5.09;85.76
58018;BME280;43810;50.860;19.226;2023-01-10T05:27:06;98088.13;;;5.06;86.00
58018;BME280;43810;50.860;19.226;2023-01-10T05:29:32;98082.84;;;5.06;86.38
58018;BME280;43810;50.860;19.226;2023-01-10T05:31:59;98095.72;;;5.07;85.93
58018;BME280;43810;50.860;19.226;2023-01-10T05:34:24;98092.78;;;5.09;86.14
58018;BME280;43810;50.860;19.226;2023-01-10T05:36:50;98097.44;;;5.12;85.90
58018;BME280;43810;50.860;19.226;2023-01-10T05:39:16;98100.06;;;5.03;86.17
58018;BME280;43810;50.860;19.226;2023-01-10T05:41:42;98103.88;;;4.97;86.58
58018;BME280;43810;50.860;19.226;2023-01-10T05:44:08;98107.28;;;4.97;86.35
58018;BME280;43810;50.860;19.226;2023-01-10T05:46:34;98112.53;;;4.89;87.01
58018;BME280;43810;50.860;19.226;2023-01-10T05:49:00;98120.56;;;4.92;87.16
58018;BME280;43810;50.860;19.226;2023-01-10T05:51:26;98120.28;;;4.94;87.20
58018;BME280;43810;50.860;19.226;2023-01-10T05:53:52;98120.56;;;4.92;87.16
58018;BME280;43810;50.860;19.226;2023-01-10T05:56:18;98131.59;;;4.94;87.37
58018;BME280;43810;50.860;19.226;2023-01-10T05:58:43;98144.94;;;4.98;86.88
58018;BME280;43810;50.860;19.226;2023-01-10T06:01:09;98137.03;;;4.98;86.84
58018;BME280;43810;50.860;19.226;2023-01-10T06:03:35;98144.75;;;4.94;87.09
58018;BME280;43810;50.860;19.226;2023-01-10T06:06:02;98153.72;;;4.93;87.22
58018;BME280;43810;50.860;19.226;2023-01-10T06:08:28;98158.03;;;4.89;87.43
58018;BME280;43810;50.860;19.226;2023-01-10T06:10:54;98163.78;;;4.91;87.33
58018;BME280;43810;50.860;19.226;2023-01-10T06:13:20;98179.09;;;4.89;87.39
58018;BME280;43810;50.860;19.226;2023-01-10T06:15:47;98163.31;;;4.89;87.61
58018;BME280;43810;50.860;19.226;2023-01-10T06:18:13;98164.97;;;4.85;87.68
58018;BME280;43810;50.860;19.226;2023-01-10T06:20:42;98175.22;;;4.87;87.91
58018;BME280;43810;50.860;19.226;2023-01-10T06:23:08;98178.31;;;4.89;87.72
58018;BME280;43810;50.860;19.226;2023-01-10T06:25:36;98185.19;;;4.98;87.51
58018;BME280;43810;50.860;19.226;2023-01-10T06:28:05;98189.88;;;5.02;87.13
58018;BME280;43810;50.860;19.226;2023-01-10T06:30:32;98195.44;;;5.00;86.86
58018;BME280;43810;50.860;19.226;2023-01-10T06:33:02;98198.16;;;4.95;87.56
58018;BME280;43810;50.860;19.226;2023-01-10T06:35:28;98204.34;;;4.90;87.15
58018;BME280;43810;50.860;19.226;2023-01-10T06:37:55;98205.59;;;4.93;87.77
58018;BME280;43810;50.860;19.226;2023-01-10T06:40:21;98205.78;;;4.96;87.77
58018;BME280;43810;50.860;19.226;2023-01-10T06:42:47;98205.28;;;4.94;87.62
58018;BME280;43810;50.860;19.226;2023-01-10T06:45:14;98215.22;;;4.97;87.60
58018;BME280;43810;50.860;19.226;2023-01-10T06:47:40;98227.03;;;5.00;87.24
58018;BME280;43810;50.860;19.226;2023-01-10T06:50:06;98236.47;;;5.01;87.38
58018;BME280;43810;50.860;19.226;2023-01-10T06:52:32;98234.72;;;4.96;88.08
58018;BME280;43810;50.860;19.226;2023-01-10T06:54:58;98236.28;;;4.97;87.99
58018;BME280;43810;50.860;19.226;2023-01-10T06:57:24;98231.69;;;5.03;87.68
58018;BME280;43810;50.860;19.226;2023-01-10T06:59:49;98239.41;;;4.99;87.90
58018;BME280;43810;50.860;19.226;2023-01-10T07:02:16;98228.72;;;5.05;88.12
58018;BME280;43810;50.860;19.226;2023-01-10T07:04:42;98241.69;;;5.15;87.43
58018;BME280;43810;50.860;19.226;2023-01-10T07:07:08;98242.47;;;5.15;87.12
58018;BME280;43810;50.860;19.226;2023-01-10T07:09:34;98249.59;;;5.15;86.99
58018;BME280;43810;50.860;19.226;2023-01-10T07:12:00;98260.13;;;5.15;86.54
58018;BME280;43810;50.860;19.226;2023-01-10T07:14:25;98255.72;;;5.10;86.67
58018;BME280;43810;50.860;19.226;2023-01-10T07:16:51;98254.19;;;5.09;86.72
58018;BME280;43810;50.860;19.226;2023-01-10T07:19:17;98259.56;;;5.04;87.34
58018;BME280;43810;50.860;19.226;2023-01-10T07:21:44;98270.84;;;5.05;87.22
58018;BME280;43810;50.860;19.226;2023-01-10T07:24:10;98273.97;;;5.07;87.08
58018;BME280;43810;50.860;19.226;2023-01-10T07:26:37;98277.22;;;5.04;87.22
58018;BME280;43810;50.860;19.226;2023-01-10T07:29:02;98285.88;;;5.04;87.75
58018;BME280;43810;50.860;19.226;2023-01-10T07:31:28;98292.69;;;5.05;87.26
58018;BME280;43810;50.860;19.226;2023-01-10T07:33:54;98284.09;;;5.13;87.24
58018;BME280;43810;50.860;19.226;2023-01-10T07:36:20;98299.91;;;5.13;87.23
58018;BME280;43810;50.860;19.226;2023-01-10T07:38:46;98290.16;;;5.14;87.31
58018;BME280;43810;50.860;19.226;2023-01-10T07:41:12;98295.59;;;5.17;87.36
58018;BME280;43810;50.860;19.226;2023-01-10T07:43:38;98291.38;;;5.16;87.06
58018;BME280;43810;50.860;19.226;2023-01-10T07:46:05;98293.25;;;5.16;86.84
58018;BME280;43810;50.860;19.226;2023-01-10T07:48:37;98296.00;;;5.11;87.12
58018;BME280;43810;50.860;19.226;2023-01-10T07:51:04;98293.38;;;5.11;87.04
58018;BME280;43810;50.860;19.226;2023-01-10T07:53:30;98293.66;;;5.09;87.44
58018;BME280;43810;50.860;19.226;2023-01-10T07:56:00;98298.16;;;5.09;87.66
58018;BME280;43810;50.860;19.226;2023-01-10T07:58:27;98294.44;;;5.10;88.01
58018;BME280;43810;50.860;19.226;2023-01-10T08:00:57;98296.97;;;5.15;87.70
58018;BME280;43810;50.860;19.226;2023-01-10T08:03:23;98300.41;;;5.15;87.33
58018;BME280;43810;50.860;19.226;2023-01-10T08:05:49;98304.78;;;5.06;87.09
58018;BME280;43810;50.860;19.226;2023-01-10T08:08:21;98298.81;;;4.92;88.13
58018;BME280;43810;50.860;19.226;2023-01-10T08:10:47;98305.63;;;4.93;88.56
58018;BME280;43810;50.860;19.226;2023-01-10T08:13:12;98305.63;;;4.93;88.77
58018;BME280;43810;50.860;19.226;2023-01-10T08:15:38;98307.94;;;4.94;88.47
58018;BME280;43810;50.860;19.226;2023-01-10T08:18:04;98310.88;;;4.93;88.15
58018;BME280;43810;50.860;19.226;2023-01-10T08:20:30;98309.50;;;4.95;88.40
58018;BME280;43810;50.860;19.226;2023-01-10T08:22:56;98316.91;;;4.93;88.24
58018;BME280;43810;50.860;19.226;2023-01-10T08:25:23;98329.72;;;4.86;88.52
58018;BME280;43810;50.860;19.226;2023-01-10T08:27:49;98338.97;;;4.84;89.20
58018;BME280;43810;50.860;19.226;2023-01-10T08:30:16;98328.16;;;4.85;88.82
58018;BME280;43810;50.860;19.226;2023-01-10T08:32:41;98333.44;;;4.85;88.85
58018;BME280;43810;50.860;19.226;2023-01-10T08:35:08;98330.78;;;4.85;88.99
58018;BME280;43810;50.860;19.226;2023-01-10T08:37:33;98339.75;;;4.84;88.86
58018;BME280;43810;50.860;19.226;2023-01-10T08:40:00;98343.47;;;4.83;88.83
58018;BME280;43810;50.860;19.226;2023-01-10T08:42:26;98340.34;;;4.81;89.44
58018;BME280;43810;50.860;19.226;2023-01-10T08:44:52;98337.91;;;4.85;89.23
58018;BME280;43810;50.860;19.226;2023-01-10T08:47:18;98343.66;;;4.87;89.02
58018;BME280;43810;50.860;19.226;2023-01-10T08:49:45;98345.72;;;4.90;89.86
58018;BME280;43810;50.860;19.226;2023-01-10T08:52:15;98359.13;;;5.02;88.87
58018;BME280;43810;50.860;19.226;2023-01-10T08:54:41;98361.09;;;4.96;88.71
58018;BME280;43810;50.860;19.226;2023-01-10T08:57:07;98370.75;;;5.01;88.78
58018;BME280;43810;50.860;19.226;2023-01-10T08:59:33;98358.53;;;5.05;88.84
58018;BME280;43810;50.860;19.226;2023-01-10T09:01:59;98363.22;;;4.94;88.89
58018;BME280;43810;50.860;19.226;2023-01-10T09:04:26;98376.41;;;4.94;89.05
58018;BME280;43810;50.860;19.226;2023-01-10T09:06:53;98371.53;;;4.88;89.44
58018;BME280;43810;50.860;19.226;2023-01-10T09:09:20;98372.81;;;4.90;89.33
58018;BME280;43810;50.860;19.226;2023-01-10T09:11:46;98375.84;;;4.84;89.65
58018;BME280;43810;50.860;19.226;2023-01-10T09:14:12;98375.06;;;4.83;89.37
58018;BME280;43810;50.860;19.226;2023-01-10T09:16:38;98376.53;;;4.89;89.42
58018;BME280;43810;50.860;19.226;2023-01-10T09:19:04;98379.53;;;4.96;89.38
58018;BME280;43810;50.860;19.226;2023-01-10T09:21:29;98382.28;;;4.91;89.14
58018;BME280;43810;50.860;19.226;2023-01-10T09:23:56;98379.72;;;4.86;89.45
58018;BME280;43810;50.860;19.226;2023-01-10T09:26:21;98379.72;;;4.86;89.77
58018;BME280;43810;50.860;19.226;2023-01-10T09:28:47;98384.28;;;4.94;89.17
58018;BME280;43810;50.860;19.226;2023-01-10T09:31:14;98378.53;;;4.92;89.51
58018;BME280;43810;50.860;19.226;2023-01-10T09:33:40;98387.41;;;4.96;89.28
58018;BME280;43810;50.860;19.226;2023-01-10T09:36:07;98390.53;;;4.98;89.17
58018;BME280;43810;50.860;19.226;2023-01-10T09:38:34;98407.41;;;4.97;89.10
58018;BME280;43810;50.860;19.226;2023-01-10T09:44:04;98414.31;;;5.07;88.74
58018;BME280;43810;50.860;19.226;2023-01-10T09:49:13;98403.47;;;5.22;88.34
58018;BME280;43810;50.860;19.226;2023-01-10T09:51:43;98409.50;;;5.23;88.37
58018;BME280;43810;50.860;19.226;2023-01-10T09:54:12;98405.34;;;5.08;88.17
58018;BME280;43810;50.860;19.226;2023-01-10T09:56:40;98414.31;;;4.93;88.91
58018;BME280;43810;50.860;19.226;2023-01-10T09:59:14;98409.56;;;4.95;89.50
58018;BME280;43810;50.860;19.226;2023-01-10T10:01:40;98404.56;;;5.08;88.83
58018;BME280;43810;50.860;19.226;2023-01-10T10:04:35;98408.66;;;5.14;89.38
58018;BME280;43810;50.860;19.226;2023-01-10T10:07:02;98411.94;;;5.19;88.93
58018;BME280;43810;50.860;19.226;2023-01-10T10:09:32;98414.56;;;5.19;88.21
58018;BME280;43810;50.860;19.226;2023-01-10T10:12:18;98418.31;;;5.05;88.49
58018;BME280;43810;50.860;19.226;2023-01-10T10:18:17;98411.69;;;4.93;88.94
58018;BME280;43810;50.860;19.226;2023-01-10T10:20:57;98420.97;;;4.91;89.31
58018;BME280;43810;50.860;19.226;2023-01-10T10:26:32;98426.63;;;4.98;89.26
58018;BME280;43810;50.860;19.226;2023-01-10T10:34:42;98444.06;;;5.08;88.56
58018;BME280;43810;50.860;19.226;2023-01-10T10:38:02;98445.13;;;5.07;88.86
58018;BME280;43810;50.860;19.226;2023-01-10T10:40:28;98452.16;;;4.97;89.02
58018;BME280;43810;50.860;19.226;2023-01-10T10:42:58;98445.34;;;4.96;89.46
58018;BME280;43810;50.860;19.226;2023-01-10T10:45:37;98458.00;;;4.94;89.60
58018;BME280;43810;50.860;19.226;2023-01-10T10:48:21;98463.09;;;4.91;89.47
58018;BME280;43810;50.860;19.226;2023-01-10T10:51:14;98474.28;;;4.83;89.94
58018;BME280;43810;50.860;19.226;2023-01-10T10:53:43;98466.69;;;4.81;89.95
58018;BME280;43810;50.860;19.226;2023-01-10T10:56:13;98468.94;;;4.88;89.72
58018;BME280;43810;50.860;19.226;2023-01-10T10:58:42;98473.50;;;4.96;89.60
58018;BME280;43810;50.860;19.226;2023-01-10T11:01:15;98478.97;;;4.99;89.84
58018;BME280;43810;50.860;19.226;2023-01-10T11:04:08;98473.31;;;4.92;89.39
58018;BME280;43810;50.860;19.226;2023-01-10T11:06:35;98473.31;;;4.92;89.65
58018;BME280;43810;50.860;19.226;2023-01-10T11:09:04;98476.25;;;4.91;89.71
58018;BME280;43810;50.860;19.226;2023-01-10T11:11:33;98478.69;;;4.87;89.89
58018;BME280;43810;50.860;19.226;2023-01-10T11:14:03;98483.09;;;4.92;89.88
58018;BME280;43810;50.860;19.226;2023-01-10T11:16:42;98482.47;;;4.95;89.59
58018;BME280;43810;50.860;19.226;2023-01-10T11:21:54;98478.41;;;5.03;90.03
58018;BME280;43810;50.860;19.226;2023-01-10T11:24:35;98488.94;;;5.03;89.29
58018;BME280;43810;50.860;19.226;2023-01-10T11:27:26;98495.16;;;4.93;89.45
58018;BME280;43810;50.860;19.226;2023-01-10T11:30:00;98495.63;;;4.95;89.80
58018;BME280;43810;50.860;19.226;2023-01-10T11:32:32;98506.00;;;4.91;89.43
58018;BME280;43810;50.860;19.226;2023-01-10T11:35:02;98505.69;;;4.93;90.00
58018;BME280;43810;50.860;19.226;2023-01-10T11:37:32;98498.28;;;4.95;89.90
58018;BME280;43810;50.860;19.226;2023-01-10T11:40:25;98509.09;;;4.93;90.07
58018;BME280;43810;50.860;19.226;2023-01-10T11:42:53;98503.53;;;4.95;90.09
58018;BME280;43810;50.860;19.226;2023-01-10T11:45:21;98515.34;;;4.97;89.73
58018;BME280;43810;50.860;19.226;2023-01-10T11:47:56;98517.09;;;4.88;89.83
58018;BME280;43810;50.860;19.226;2023-01-10T11:50:25;98525.06;;;4.83;89.98
58018;BME280;43810;50.860;19.226;2023-01-10T11:52:53;98520.31;;;4.85;89.90
58018;BME280;43810;50.860;19.226;2023-01-10T11:55:28;98529.47;;;4.88;90.18
58018;BME280;43810;50.860;19.226;2023-01-10T11:58:12;98526.94;;;4.96;90.26
58018;BME280;43810;50.860;19.226;2023-01-10T12:00:45;98539.03;;;4.97;89.96
58018;BME280;43810;50.860;19.226;2023-01-10T12:05:59;98542.06;;;4.91;89.77
58018;BME280;43810;50.860;19.226;2023-01-10T12:08:31;98538.84;;;4.94;90.38
58018;BME280;43810;50.860;19.226;2023-01-10T12:11:32;98551.63;;;5.00;89.44
58018;BME280;43810;50.860;19.226;2023-01-10T12:13:57;98555.03;;;5.01;89.94
58018;BME280;43810;50.860;19.226;2023-01-10T12:16:24;98558.34;;;5.07;89.54
58018;BME280;43810;50.860;19.226;2023-01-10T12:18:55;98555.22;;;5.05;89.19
58018;BME280;43810;50.860;19.226;2023-01-10T12:21:41;98564.50;;;5.02;89.45
58018;BME280;43810;50.860;19.226;2023-01-10T12:24:16;98570.84;;;5.01;89.50
58018;BME280;43810;50.860;19.226;2023-01-10T12:26:45;98567.50;;;4.95;89.10
58018;BME280;43810;50.860;19.226;2023-01-10T12:29:20;98576.75;;;4.93;89.85
58018;BME280;43810;50.860;19.226;2023-01-10T12:31:49;98586.63;;;5.01;89.75
58018;BME280;43810;50.860;19.226;2023-01-10T12:34:22;98590.69;;;4.93;89.56
58018;BME280;43810;50.860;19.226;2023-01-10T12:37:21;98586.03;;;4.90;90.05
58018;BME280;43810;50.860;19.226;2023-01-10T12:39:52;98589.13;;;4.92;89.71
58018;BME280;43810;50.860;19.226;2023-01-10T12:45:45;98600.28;;;4.89;90.11
58018;BME280;43810;50.860;19.226;2023-01-10T12:49:01;98598.81;;;4.97;90.04
58018;BME280;43810;50.860;19.226;2023-01-10T12:51:30;98601.56;;;4.92;89.55
58018;BME280;43810;50.860;19.226;2023-01-10T12:54:04;98601.06;;;4.90;90.22
58018;BME280;43810;50.860;19.226;2023-01-10T12:56:35;98603.50;;;5.00;89.76
58018;BME280;43810;50.860;19.226;2023-01-10T12:59:24;98613.03;;;4.96;90.25
58018;BME280;43810;50.860;19.226;2023-01-10T13:01:55;98610.44;;;5.10;89.92
58018;BME280;43810;50.860;19.226;2023-01-10T13:04:27;98612.19;;;5.00;89.23
58018;BME280;43810;50.860;19.226;2023-01-10T13:06:55;98616.56;;;4.91;89.83
58018;BME280;43810;50.860;19.226;2023-01-10T13:09:24;98618.81;;;4.98;89.63
58018;BME280;43810;50.860;19.226;2023-01-10T13:12:14;98631.09;;;5.03;89.50
58018;BME280;43810;50.860;19.226;2023-01-10T13:15:28;98634.31;;;4.99;89.74
58018;BME280;43810;50.860;19.226;2023-01-10T13:17:47;98638.69;;;5.04;89.59
58018;BME280;43810;50.860;19.226;2023-01-10T13:22:58;98648.88;;;5.11;89.36
58018;BME280;43810;50.860;19.226;2023-01-10T13:25:29;98641.03;;;5.06;89.37
58018;BME280;43810;50.860;19.226;2023-01-10T13:28:03;98654.09;;;4.97;89.52
58018;BME280;43810;50.860;19.226;2023-01-10T13:30:33;98654.66;;;4.94;89.83
58018;BME280;43810;50.860;19.226;2023-01-10T13:33:22;98663.84;;;4.96;90.01
58018;BME280;43810;50.860;19.226;2023-01-10T13:35:51;98668.63;;;4.94;89.98
58018;BME280;43810;50.860;19.226;2023-01-10T13:38:20;98663.84;;;4.96;89.66
58018;BME280;43810;50.860;19.226;2023-01-10T13:41:08;98666.47;;;4.96;89.82
58018;BME280;43810;50.860;19.226;2023-01-10T13:44:12;98669.31;;;5.00;89.92
58018;BME280;43810;50.860;19.226;2023-01-10T13:46:41;98673.53;;;5.01;89.61
58018;BME280;43810;50.860;19.226;2023-01-10T13:51:37;98689.59;;;4.99;89.81
58018;BME280;43810;50.860;19.226;2023-01-10T13:56:42;98698.50;;;5.04;89.69
58018;BME280;43810;50.860;19.226;2023-01-10T13:59:58;98692.81;;;4.96;89.76
58018;BME280;43810;50.860;19.226;2023-01-10T14:02:27;98692.31;;;4.94;90.27
58018;BME280;43810;50.860;19.226;2023-01-10T14:05:06;98705.63;;;5.03;90.08
58018;BME280;43810;50.860;19.226;2023-01-10T14:07:47;98701.25;;;5.12;89.85
58018;BME280;43810;50.860;19.226;2023-01-10T14:10:30;98698.50;;;5.17;89.58
58018;BME280;43810;50.860;19.226;2023-01-10T14:12:58;98707.69;;;5.20;89.86
58018;BME280;43810;50.860;19.226;2023-01-10T14:15:30;98710.25;;;5.25;89.22
58018;BME280;43810;50.860;19.226;2023-01-10T14:18:07;98709.25;;;5.21;88.91
58018;BME280;43810;50.860;19.226;2023-01-10T14:20:41;98715.19;;;5.13;89.44
58018;BME280;43810;50.860;19.226;2023-01-10T14:23:19;98715.00;;;5.09;89.44